Time;durP1;ratioP1;P1;durP2;ratioP2;P2;SDS_P1;SDS_P2;PMS_P1;PMS_P2;Temp;Humidity;BMP_temperature;BMP_pressure;BME280_temperature;BME280_humidity;BME280_pressure;Samples;Min_cycle;Max_cycle;Signal;HPM_P1;HPM_P2
2022/12/13 00:00:26;;;;;;;26.52;7.82;;;;;;;0.30;79.73;99536.63;4981040;28;20046;-57
2022/12/13 00:02:53;;;;;;;26.00;6.90;;;;;;;0.31;78.89;99533.25;4986281;28;20050;-58
2022/12/13 00:05:19;;;;;;;17.95;5.63;;;;;;;0.20;79.29;99540.56;4985228;28;20403;-51
2022/12/13 00:07:46;;;;;;;12.30;5.15;;;;;;;0.19;79.12;99539.69;4983848;28;20104;-53
2022/12/13 00:10:12;;;;;;;18.10;6.40;;;;;;;0.22;79.30;99549.97;4985840;28;20764;-58
2022/12/13 00:12:39;;;;;;;17.17;6.72;;;;;;;0.23;79.58;99551.69;4981807;28;20054;-54
2022/12/13 00:15:06;;;;;;;16.13;6.82;;;;;;;0.13;79.13;99544.56;4986161;28;20052;-49
2022/12/13 00:17:33;;;;;;;15.70;5.88;;;;;;;0.14;78.99;99546.31;4978790;28;20039;-53
2022/12/13 00:20:00;;;;;;;17.00;4.93;;;;;;;0.13;79.04;99534.38;4981390;28;21541;-51
2022/12/13 00:22:27;;;;;;;19.10;5.63;;;;;;;0.17;78.96;99536.19;4980632;28;20046;-54
2022/12/13 00:24:55;;;;;;;13.38;5.82;;;;;;;0.10;79.34;99530.06;4985663;28;20140;-55
2022/12/13 00:27:22;;;;;;;15.55;5.53;;;;;;;0.12;79.70;99531.00;4985261;28;20145;-49
2022/12/13 00:29:48;;;;;;;21.17;7.32;;;;;;;0.10;79.33;99530.06;4985120;28;20058;-50
2022/12/13 00:32:15;;;;;;;18.38;6.00;;;;;;;0.10;79.73;99532.59;4981943;28;20148;-51
2022/12/13 00:34:42;;;;;;;11.88;5.47;;;;;;;0.02;79.30;99528.97;4982424;28;20050;-54
2022/12/13 00:37:09;;;;;;;15.90;5.35;;;;;;;0.00;79.65;99528.06;4983085;28;20674;-52
2022/12/13 00:39:35;;;;;;;22.88;7.75;;;;;;;0.01;79.63;99519.59;4978871;28;20679;-50
2022/12/13 00:42:02;;;;;;;13.60;5.43;;;;;;;-0.05;79.56;99520.28;4985409;28;20657;-53
2022/12/13 00:44:30;;;;;;;17.60;5.80;;;;;;;0.04;78.99;99518.81;4981085;28;20077;-52
2022/12/13 00:46:56;;;;;;;17.00;6.18;;;;;;;-0.06;79.12;99523.63;4982534;28;20050;-50
2022/12/13 00:49:23;;;;;;;21.33;6.45;;;;;;;0.03;79.31;99512.00;4985106;28;20140;-54
2022/12/13 00:51:50;;;;;;;17.92;7.07;;;;;;;0.05;79.24;99510.38;4982336;28;20050;-55
2022/12/13 00:54:17;;;;;;;21.85;7.18;;;;;;;0.07;79.34;99512.13;4984019;28;20117;-50
2022/12/13 00:56:44;;;;;;;19.73;6.60;;;;;;;0.10;79.04;99513.94;4981428;28;20133;-50
2022/12/13 00:59:13;;;;;;;21.20;7.43;;;;;;;0.12;78.75;99508.06;4979133;28;20062;-50
2022/12/13 01:01:40;;;;;;;19.13;7.03;;;;;;;0.09;79.38;99507.97;4976670;28;20070;-49
2022/12/13 01:04:06;;;;;;;20.48;7.13;;;;;;;0.09;79.37;99507.09;4982876;28;20054;-52
2022/12/13 01:06:37;;;;;;;17.33;5.78;;;;;;;0.06;79.57;99507.00;4984696;28;20082;-49
2022/12/13 01:09:06;;;;;;;22.55;8.00;;;;;;;0.02;79.85;99505.16;4979404;28;20046;-56
2022/12/13 01:11:33;;;;;;;19.23;7.03;;;;;;;-0.03;79.47;99513.53;4971634;28;20156;-53
2022/12/13 01:14:00;;;;;;;21.13;7.10;;;;;;;-0.07;79.66;99504.06;4976810;28;20096;-56
2022/12/13 01:16:26;;;;;;;14.88;5.55;;;;;;;-0.01;79.58;99504.28;4980825;28;20686;-54
2022/12/13 01:18:53;;;;;;;17.15;5.78;;;;;;;-0.02;79.73;99505.09;4980944;28;20133;-51
2022/12/13 01:21:20;;;;;;;21.42;7.68;;;;;;;0.03;79.09;99501.81;4980015;28;20081;-52
2022/12/13 01:23:48;;;;;;;23.20;6.45;;;;;;;0.05;78.82;99500.19;4980706;28;20105;-52
2022/12/13 01:26:18;;;;;;;19.30;6.72;;;;;;;0.04;78.88;99501.00;4977968;28;20057;-56
2022/12/13 01:28:45;;;;;;;18.17;6.85;;;;;;;0.03;79.38;99501.81;4973881;28;20141;-55
2022/12/13 01:31:15;;;;;;;17.65;6.88;;;;;;;0.03;79.14;99501.81;4973834;28;20050;-50
2022/12/13 01:33:42;;;;;;;18.45;5.85;;;;;;;0.02;79.10;99500.94;4975811;28;20077;-54
2022/12/13 01:36:13;;;;;;;17.50;6.93;;;;;;;0.03;79.37;99512.00;4978981;28;20050;-53
2022/12/13 01:38:41;;;;;;;17.13;6.55;;;;;;;0.01;79.34;99508.53;4975188;28;20225;-47
2022/12/13 01:41:17;;;;;;;18.83;5.95;;;;;;;-0.01;78.99;99511.91;4972187;28;20074;-55
2022/12/13 01:46:21;;;;;;;15.52;6.32;;;;;;;-0.02;79.40;99517.81;5025900;28;21135;-52
2022/12/13 01:48:58;;;;;;;15.65;5.93;;;;;;;-0.02;78.85;99525.47;4994226;28;20140;-49
2022/12/13 01:51:35;;;;;;;18.60;7.03;;;;;;;-0.02;79.31;99524.59;4995336;28;20073;-54
2022/12/13 01:54:05;;;;;;;16.38;6.40;;;;;;;-0.04;78.99;99527.09;4992218;28;20676;-51
2022/12/13 01:56:38;;;;;;;14.73;5.65;;;;;;;-0.05;79.08;99534.66;4994774;28;20116;-51
2022/12/13 01:59:06;;;;;;;9.88;6.18;;;;;;;-0.08;78.72;99527.81;4989536;28;20173;-50
2022/12/13 02:01:33;;;;;;;9.82;6.05;;;;;;;-0.18;79.46;99530.84;4993878;28;20049;-55
2022/12/13 02:04:00;;;;;;;18.88;6.38;;;;;;;-0.19;79.14;99531.69;4993058;28;20141;-49
2022/12/13 02:09:06;;;;;;;12.48;6.38;;;;;;;-0.15;79.00;99538.59;5073959;27;20409;-56
2022/12/13 02:11:36;;;;;;;15.50;7.20;;;;;;;-0.11;79.00;99539.59;5048218;28;20100;-52
2022/12/13 02:14:04;;;;;;;13.27;7.18;;;;;;;-0.09;79.06;99543.91;5033657;28;20072;-51
2022/12/13 02:27:41;;;;;;;12.82;4.65;;;;;;;0.03;79.00;99533.22;5015144;27;20413;-52
2022/12/13 02:30:36;;;;;;;10.85;6.55;;;;;;;0.02;78.57;99530.63;5022537;28;20073;-54
2022/12/13 02:33:28;;;;;;;13.77;5.13;;;;;;;-0.02;78.93;99530.56;5008763;28;20050;-55
2022/12/13 02:38:58;;;;;;;14.85;5.00;;;;;;;-0.08;78.61;99540.53;5023648;27;20414;-51
2022/12/13 02:44:12;;;;;;;10.60;3.55;;;;;;;-0.06;78.59;99533.81;5076409;27;20131;-54
2022/12/13 02:47:01;;;;;;;14.32;4.82;;;;;;;-0.05;78.40;99535.53;5042272;28;20415;-53
2022/12/13 02:49:33;;;;;;;12.45;4.95;;;;;;;-0.06;79.19;99543.13;5049797;28;20045;-51
2022/12/13 02:52:02;;;;;;;10.35;3.60;;;;;;;-0.17;79.05;99536.00;5038506;28;20084;-55
2022/12/13 02:54:29;;;;;;;10.40;4.80;;;;;;;-0.14;78.74;99537.78;5057375;28;20140;-56
2022/12/13 02:56:57;;;;;;;15.57;6.40;;;;;;;-0.13;78.52;99537.00;5042192;28;20452;-53
2022/12/13 02:59:33;;;;;;;10.82;4.18;;;;;;;-0.21;78.91;99543.50;5039498;28;20073;-50
2022/12/13 03:02:17;;;;;;;14.60;5.18;;;;;;;-0.15;78.09;99539.47;5050389;28;20109;-54
2022/12/13 03:07:50;;;;;;;16.00;6.20;;;;;;;-0.13;78.19;99547.16;5056624;27;20388;-52
2022/12/13 03:10:26;;;;;;;12.90;5.78;;;;;;;-0.20;78.64;99545.22;5034120;28;20052;-53
2022/12/13 03:15:56;;;;;;;14.88;5.60;;;;;;;-0.18;78.53;99546.13;5033822;28;20809;-55
2022/12/13 03:18:25;;;;;;;11.80;4.60;;;;;;;-0.23;77.92;99540.03;5032629;28;20139;-53
2022/12/13 03:23:28;;;;;;;15.98;5.18;;;;;;;-0.27;78.12;99545.03;5023372;28;20417;-51
2022/12/13 03:26:00;;;;;;;13.50;5.55;;;;;;;-0.32;77.67;99541.47;5022999;28;20045;-51
2022/12/13 03:28:27;;;;;;;13.20;5.30;;;;;;;-0.39;78.24;99534.44;5015018;28;20141;-52
2022/12/13 03:30:53;;;;;;;14.35;6.63;;;;;;;-0.40;77.64;99537.81;5017831;28;20084;-49
2022/12/13 03:33:21;;;;;;;14.43;6.90;;;;;;;-0.42;78.00;99536.88;5015200;28;20729;-50
2022/12/13 03:35:48;;;;;;;19.80;7.60;;;;;;;-0.44;78.13;99535.97;5014558;28;20077;-56
2022/12/13 03:38:16;;;;;;;15.45;5.65;;;;;;;-0.46;77.89;99529.97;5016203;28;20164;-51
2022/12/13 03:40:50;;;;;;;17.20;7.88;;;;;;;-0.47;78.07;99531.63;5018483;28;20046;-51
2022/12/13 03:43:17;;;;;;;18.30;8.52;;;;;;;-0.49;78.72;99530.72;5016303;28;20942;-49
2022/12/13 03:45:49;;;;;;;12.45;5.25;;;;;;;-0.49;77.90;99524.75;5016190;28;20561;-48
2022/12/13 03:48:16;;;;;;;16.30;6.63;;;;;;;-0.50;78.54;99528.13;5009536;28;20053;-49
2022/12/13 03:50:50;;;;;;;14.63;7.45;;;;;;;-0.53;78.54;99519.56;5017495;28;20041;-49
2022/12/13 03:53:17;;;;;;;14.80;6.10;;;;;;;-0.55;78.29;99516.13;5018972;28;20576;-52
2022/12/13 03:55:59;;;;;;;19.63;7.05;;;;;;;-0.57;78.11;99520.28;5015057;28;20046;-50
2022/12/13 03:58:27;;;;;;;16.65;6.78;;;;;;;-0.58;78.02;99517.69;5017732;28;20060;-56
2022/12/13 04:01:18;;;;;;;15.90;6.72;;;;;;;-0.61;78.45;99513.34;5010361;28;20489;-49
2022/12/13 04:03:46;;;;;;;17.42;7.50;;;;;;;-0.62;78.33;99505.66;5001932;28;20049;-56
2022/12/13 04:06:14;;;;;;;18.92;8.60;;;;;;;-0.65;78.04;99508.97;5010288;28;20137;-54
2022/12/13 04:08:49;;;;;;;18.00;6.72;;;;;;;-0.67;78.31;99516.56;5014832;28;20049;-51
2022/12/13 04:14:09;;;;;;;13.63;5.95;;;;;;;-0.69;78.35;99519.84;5016469;28;20157;-54
2022/12/13 04:16:35;;;;;;;16.88;8.05;;;;;;;-0.71;78.11;99513.88;5015136;28;20058;-61
2022/12/13 04:19:02;;;;;;;15.45;5.40;;;;;;;-0.72;78.08;99517.19;5018971;28;20141;-49
2022/12/13 04:21:29;;;;;;;20.63;6.13;;;;;;;-0.73;78.07;99518.03;5017697;28;20112;-50
2022/12/13 04:23:55;;;;;;;11.77;6.53;;;;;;;-0.76;78.06;99508.63;5016490;28;20054;-52
2022/12/13 04:26:26;;;;;;;;;;;;;;;-0.80;78.17;99512.75;5013038;28;20053;-48
2022/12/13 04:28:52;;;;;;;15.05;6.28;;;;;;;-0.81;77.88;99515.22;5016275;28;20345;-55
2022/12/13 04:31:20;;;;;;;15.60;6.80;;;;;;;-0.83;78.37;99511.75;5013438;28;20084;-52
2022/12/13 04:33:47;;;;;;;14.63;5.78;;;;;;;-0.87;78.33;99510.78;5007286;28;20178;-50
2022/12/13 04:36:18;;;;;;;16.58;6.90;;;;;;;-0.88;77.96;99503.97;5001890;28;20140;-50
2022/12/13 04:38:59;;;;;;;20.77;6.78;;;;;;;-0.92;78.34;99505.53;5007006;28;20123;-55
2022/12/13 04:41:27;;;;;;;21.17;7.20;;;;;;;-0.92;78.41;99509.75;5002115;28;20416;-52
2022/12/13 04:44:01;;;;;;;13.55;6.95;;;;;;;-0.97;78.08;99504.53;4996627;28;20050;-53
2022/12/13 04:46:28;;;;;;;15.75;7.50;;;;;;;-0.98;78.25;99512.94;5000028;28;20050;-50
2022/12/13 04:48:54;;;;;;;19.48;6.90;;;;;;;-0.98;78.58;99504.47;4999800;28;20050;-55
2022/12/13 04:51:21;;;;;;;16.52;6.82;;;;;;;-1.00;78.13;99498.44;5000907;28;20416;-52
2022/12/13 04:53:47;;;;;;;19.48;6.82;;;;;;;-1.02;77.98;99493.31;5000273;28;20053;-49
2022/12/13 04:56:14;;;;;;;13.48;5.28;;;;;;;-1.01;78.22;99481.47;5000291;28;20638;-49
2022/12/13 04:58:41;;;;;;;19.80;7.50;;;;;;;-1.02;78.17;99488.22;5001416;28;20464;-52
2022/12/13 05:01:09;;;;;;;19.23;6.30;;;;;;;-1.04;78.40;99485.63;5003883;28;20069;-52
2022/12/13 05:03:37;;;;;;;17.45;5.10;;;;;;;-1.08;78.42;99485.47;5002918;28;20049;-49
2022/12/13 05:06:06;;;;;;;15.38;7.03;;;;;;;-1.12;78.05;99489.56;5001383;28;20547;-51
2022/12/13 05:08:52;;;;;;;19.10;6.35;;;;;;;-1.16;78.15;99497.91;5000499;28;20424;-55
2022/12/13 05:11:19;;;;;;;17.23;7.85;;;;;;;-1.20;77.60;99490.97;5000264;28;20127;-53
2022/12/13 05:13:48;;;;;;;16.25;6.63;;;;;;;-1.22;78.28;99492.63;4996922;28;20161;-48
2022/12/13 05:16:15;;;;;;;20.17;7.50;;;;;;;-1.25;78.35;99487.41;4996448;28;20049;-56
2022/12/13 05:18:41;;;;;;;17.92;7.50;;;;;;;-1.31;78.40;99494.00;5001946;28;20046;-50
2022/12/13 05:21:10;;;;;;;16.27;6.40;;;;;;;-1.36;78.13;99495.50;5003260;28;20042;-51
2022/12/13 05:23:37;;;;;;;20.70;5.45;;;;;;;-1.38;78.32;99498.81;5002550;28;20144;-49
2022/12/13 05:26:05;;;;;;;19.13;7.93;;;;;;;-1.40;78.08;99497.88;4999198;28;20062;-47
2022/12/13 05:28:32;;;;;;;17.77;7.43;;;;;;;-1.40;77.99;99490.25;4997154;28;20129;-52
2022/12/13 05:31:06;;;;;;;16.20;6.05;;;;;;;-1.40;78.43;99491.13;4995041;28;20753;-51
2022/12/13 05:33:50;;;;;;;19.10;7.93;;;;;;;-1.39;78.39;99489.47;4999421;28;20038;-51
2022/12/13 05:36:17;;;;;;;14.75;6.38;;;;;;;-1.39;78.58;99485.22;4998690;28;20077;-50
2022/12/13 05:38:44;;;;;;;18.73;8.20;;;;;;;-1.38;78.12;99481.91;4994434;28;20171;-54
2022/12/13 05:41:16;;;;;;;17.40;8.35;;;;;;;-1.38;78.21;99478.47;5000524;28;20761;-52
2022/12/13 05:43:42;;;;;;;17.38;7.13;;;;;;;-1.38;77.71;99465.78;5005533;28;20107;-50
2022/12/13 05:48:45;;;;;;;17.92;8.00;;;;;;;-1.42;78.63;99465.66;5037037;28;20923;-50
2022/12/13 05:51:12;;;;;;;14.10;6.07;;;;;;;-1.43;77.81;99473.22;4996857;28;20714;-54
2022/12/13 05:53:40;;;;;;;12.73;6.20;;;;;;;-1.45;78.62;99475.72;5000466;28;20081;-52
2022/12/13 05:56:08;;;;;;;18.85;6.68;;;;;;;-1.45;78.53;99495.19;4997597;28;20114;-47
2022/12/13 05:58:36;;;;;;;16.58;5.47;;;;;;;-1.46;78.48;99498.50;4996404;28;20186;-53
2022/12/13 06:01:05;;;;;;;19.52;7.65;;;;;;;-1.48;78.55;99495.94;4998452;28;20077;-53
2022/12/13 06:03:32;;;;;;;20.95;8.18;;;;;;;-1.47;78.00;99491.72;5019885;28;20041;-53
2022/12/13 06:06:01;;;;;;;17.13;6.82;;;;;;;-1.50;77.97;99491.59;5018822;28;20046;-52
2022/12/13 06:08:28;;;;;;;19.73;6.90;;;;;;;-1.51;78.38;99489.88;5018719;28;20083;-54
2022/12/13 06:10:57;;;;;;;14.43;6.25;;;;;;;-1.53;77.84;99488.97;5018855;28;20049;-51
2022/12/13 06:13:39;;;;;;;17.50;6.28;;;;;;;-1.55;78.18;99494.81;5015927;28;20081;-51
2022/12/13 06:16:08;;;;;;;;;;;;;;;-1.60;78.32;99491.25;5016618;28;20049;-54
2022/12/13 06:18:49;;;;;;;18.08;6.55;;;;;;;-1.61;78.45;99497.16;5012179;28;19984;-55
2022/12/13 06:21:16;;;;;;;15.20;5.65;;;;;;;-1.62;78.08;99495.41;5015256;28;20081;-49
2022/12/13 06:23:43;;;;;;;20.98;8.00;;;;;;;-1.64;78.72;99497.03;5019263;28;20065;-48
2022/12/13 06:26:09;;;;;;;15.93;5.78;;;;;;;-1.65;77.91;99502.94;5016296;28;20547;-54
2022/12/13 06:28:36;;;;;;;16.48;7.53;;;;;;;-1.64;77.92;99504.66;5014746;28;20144;-50
2022/12/13 06:31:03;;;;;;;20.20;5.85;;;;;;;-1.64;78.29;99512.28;5015463;28;20077;-53
2022/12/13 06:33:34;;;;;;;19.02;7.68;;;;;;;-1.64;78.30;99514.81;5014205;28;20072;-51
2022/12/13 06:36:02;;;;;;;20.35;7.47;;;;;;;-1.63;77.82;99520.72;5012670;28;20088;-51
2022/12/13 06:38:29;;;;;;;18.13;5.45;;;;;;;-1.63;77.93;99516.53;5009570;28;20092;-47
2022/12/13 06:41:15;;;;;;;14.93;7.53;;;;;;;-1.62;78.49;99505.56;5018345;28;20133;-55
2022/12/13 06:43:43;;;;;;;18.38;5.82;;;;;;;-1.60;77.71;99500.53;5015204;28;20072;-55
2022/12/13 06:46:11;;;;;;;17.30;6.63;;;;;;;-1.61;78.28;99504.78;5013868;28;20081;-46
2022/12/13 06:48:39;;;;;;;21.27;7.68;;;;;;;-1.59;78.42;99505.69;5017436;28;20474;-50
2022/12/13 06:51:07;;;;;;;19.67;7.10;;;;;;;-1.59;78.04;99500.59;5013004;28;20501;-51
2022/12/13 06:53:36;;;;;;;17.98;5.75;;;;;;;-1.60;77.87;99503.97;5012306;28;20108;-54
2022/12/13 06:56:05;;;;;;;16.48;5.97;;;;;;;-1.60;77.73;99506.50;5017630;28;20096;-54
2022/12/13 06:58:32;;;;;;;18.02;6.50;;;;;;;-1.62;77.91;99513.19;5011033;28;20070;-49
2022/12/13 07:01:17;;;;;;;17.23;6.72;;;;;;;-1.63;78.11;99516.53;4995164;28;20061;-51
2022/12/13 07:03:52;;;;;;;19.70;7.30;;;;;;;-1.63;78.07;99510.56;4996036;28;20072;-55
2022/12/13 07:06:20;;;;;;;14.73;6.65;;;;;;;-1.62;78.32;99513.19;4990941;28;20124;-51
2022/12/13 07:08:49;;;;;;;18.58;6.35;;;;;;;-1.63;77.79;99516.53;4997539;28;20041;-53
2022/12/13 07:11:18;;;;;;;21.50;5.60;;;;;;;-1.65;77.61;99518.16;4994821;28;20046;-57
2022/12/13 07:13:45;;;;;;;21.77;7.20;;;;;;;-1.63;77.71;99521.63;4997227;28;20132;-57
2022/12/13 07:16:13;;;;;;;22.30;6.95;;;;;;;-1.65;77.80;99513.09;4999616;28;20129;-55
2022/12/13 07:18:40;;;;;;;20.52;7.05;;;;;;;-1.65;77.35;99523.25;4993943;28;20049;-54
2022/12/13 07:21:09;;;;;;;21.45;7.43;;;;;;;-1.63;78.40;99525.81;4992358;28;20144;-51
2022/12/13 07:23:49;;;;;;;27.13;7.38;;;;;;;-1.63;78.50;99521.63;4997549;28;20132;-53
2022/12/13 07:26:21;;;;;;;21.67;8.15;;;;;;;-1.62;78.26;99517.41;4998140;28;20131;-57
2022/12/13 07:28:48;;;;;;;45.50;7.93;;;;;;;-1.60;77.43;99525.94;4995495;28;20133;-52
2022/12/13 07:31:21;;;;;;;47.72;7.70;;;;;;;-1.61;78.05;99532.72;4999543;28;20691;-57
2022/12/13 07:33:48;;;;;;;65.15;8.38;;;;;;;-1.62;77.95;99525.88;5002738;28;20563;-51
2022/12/13 07:36:18;;;;;;;57.60;7.93;;;;;;;-1.65;77.49;99517.28;4997871;28;20077;-50
2022/12/13 07:38:50;;;;;;;30.65;9.27;;;;;;;-1.65;78.17;99517.28;4999257;28;20529;-51
2022/12/13 07:41:17;;;;;;;48.60;5.88;;;;;;;-1.68;77.89;99526.50;4999212;28;20069;-48
2022/12/13 07:43:50;;;;;;;22.23;6.20;;;;;;;-1.65;77.86;99522.38;4996591;28;20696;-54
2022/12/13 07:46:22;;;;;;;55.03;9.85;;;;;;;-1.64;77.71;99522.44;4996433;28;20151;-50
2022/12/13 07:49:01;;;;;;;31.48;8.10;;;;;;;-1.63;78.08;99523.28;5000113;28;20038;-52
2022/12/13 07:51:28;;;;;;;59.55;6.57;;;;;;;-1.64;78.19;99519.88;4996758;28;20482;-51
2022/12/13 07:53:56;;;;;;;50.92;8.60;;;;;;;-1.64;77.83;99522.44;4996065;28;20153;-52
2022/12/13 07:56:22;;;;;;;43.22;7.88;;;;;;;-1.67;77.84;99522.31;4997002;28;20053;-54
2022/12/13 07:58:49;;;;;;;45.15;9.38;;;;;;;-1.70;77.97;99525.59;4992392;28;20786;-56
2022/12/13 08:01:16;;;;;;;65.05;7.07;;;;;;;-1.68;78.43;99533.28;4999060;28;20046;-50
2022/12/13 08:03:47;;;;;;;25.70;6.47;;;;;;;-1.68;78.11;99525.66;5001876;28;20050;-51
2022/12/13 08:06:14;;;;;;;34.97;6.95;;;;;;;-1.70;77.87;99523.06;5000000;28;20062;-53
2022/12/13 08:08:40;;;;;;;45.25;7.50;;;;;;;-1.71;78.46;99521.34;4998902;28;20136;-48
2022/12/13 08:11:10;;;;;;;21.08;6.75;;;;;;;-1.73;77.64;99522.06;5002832;28;20077;-49
2022/12/13 08:13:37;;;;;;;20.30;7.55;;;;;;;-1.73;77.91;99516.97;5001322;28;20073;-51
2022/12/13 08:16:07;;;;;;;41.55;8.73;;;;;;;-1.72;77.71;99516.19;4997395;28;20052;-54
2022/12/13 08:18:54;;;;;;;33.97;7.60;;;;;;;-1.75;77.37;99511.88;5000001;28;20477;-48
2022/12/13 08:21:35;;;;;;;40.03;5.90;;;;;;;-1.78;77.66;99514.28;4999294;28;20132;-51
2022/12/13 08:24:24;;;;;;;58.33;8.77;;;;;;;-1.88;77.62;99515.59;4999132;28;20068;-56
2022/12/13 08:26:51;;;;;;;50.60;6.80;;;;;;;-1.95;78.26;99511.09;4999859;28;20915;-53
2022/12/13 08:29:18;;;;;;;48.70;5.78;;;;;;;-2.02;77.80;99515.06;4999498;28;20545;-54
2022/12/13 08:31:57;;;;;;;54.80;8.20;;;;;;;-2.05;77.83;99519.13;5001284;28;20046;-49
2022/12/13 08:34:26;;;;;;;55.00;7.32;;;;;;;-2.07;78.43;99519.94;5003719;28;20077;-50
2022/12/13 08:36:53;;;;;;;81.57;7.70;;;;;;;-2.10;78.53;99519.81;5001358;28;20081;-54
2022/12/13 08:39:29;;;;;;;40.35;5.93;;;;;;;-2.10;78.42;99524.91;5004102;28;20564;-56
2022/12/13 08:42:01;;;;;;;27.15;6.75;;;;;;;-2.05;78.17;99526.75;5006541;28;20072;-53
2022/12/13 08:44:48;;;;;;;28.40;6.20;;;;;;;-2.02;78.46;99526.88;5002476;28;20121;-51
2022/12/13 08:47:16;;;;;;;27.10;7.43;;;;;;;-1.98;78.06;99523.66;5004682;28;21355;-51
2022/12/13 08:49:52;;;;;;;33.00;6.00;;;;;;;-1.96;78.70;99517.81;5000072;28;20074;-50
2022/12/13 08:52:21;;;;;;;28.35;6.07;;;;;;;-1.94;78.29;99522.97;5002555;28;20078;-56
2022/12/13 08:54:48;;;;;;;30.05;8.45;;;;;;;-1.93;78.41;99517.06;5005213;28;20092;-55
2022/12/13 08:57:14;;;;;;;24.83;7.00;;;;;;;-1.91;78.57;99520.56;5002884;28;20148;-55
2022/12/13 08:59:41;;;;;;;38.47;7.38;;;;;;;-1.87;78.54;99508.84;4998182;28;20600;-52
2022/12/13 09:02:12;;;;;;;35.08;7.38;;;;;;;-1.85;78.29;99515.72;5001658;28;20661;-56
2022/12/13 09:04:39;;;;;;;21.52;7.78;;;;;;;-1.82;78.58;99509.91;5004057;28;20089;-50
2022/12/13 09:07:05;;;;;;;27.70;6.65;;;;;;;-1.81;78.21;99507.41;4998453;28;20572;-58
2022/12/13 09:09:32;;;;;;;22.80;6.88;;;;;;;-1.77;78.36;99510.06;5002859;28;21204;-49
2022/12/13 09:11:59;;;;;;;51.60;9.18;;;;;;;-1.75;78.05;99506.78;4998314;28;20073;-54
2022/12/13 09:14:26;;;;;;;22.10;7.53;;;;;;;-1.74;78.20;99512.72;5000301;28;20073;-49
2022/12/13 09:17:01;;;;;;;21.20;7.47;;;;;;;-1.71;77.88;99507.75;4999957;28;20054;-50
2022/12/13 09:19:29;;;;;;;26.00;8.80;;;;;;;-1.68;78.38;99510.41;5000859;28;20111;-52
2022/12/13 09:22:03;;;;;;;24.67;7.72;;;;;;;-1.65;78.66;99513.09;4992376;28;20098;-55
2022/12/13 09:24:30;;;;;;;16.67;5.95;;;;;;;-1.62;78.47;99513.19;4998895;28;20061;-52
2022/12/13 09:27:02;;;;;;;24.33;7.78;;;;;;;-1.62;78.01;99510.63;4999357;28;20050;-55
2022/12/13 09:29:36;;;;;;;17.92;6.47;;;;;;;-1.61;78.11;99506.44;4999932;28;20148;-49
2022/12/13 09:32:03;;;;;;;23.90;9.38;;;;;;;-1.58;77.92;99506.56;4997356;28;20133;-52
2022/12/13 09:34:31;;;;;;;22.58;8.48;;;;;;;-1.56;78.04;99505.81;5003922;28;20172;-51
2022/12/13 09:36:58;;;;;;;31.48;7.65;;;;;;;-1.53;78.13;99504.19;4998936;28;20053;-52
2022/12/13 09:39:27;;;;;;;24.17;7.63;;;;;;;-1.51;77.96;99500.03;4998536;28;20041;-50
2022/12/13 09:41:56;;;;;;;31.55;7.45;;;;;;;-1.49;77.83;99503.50;4998907;28;20061;-53
2022/12/13 09:44:34;;;;;;;18.50;7.70;;;;;;;-1.46;77.85;99498.50;5001471;28;20077;-53
2022/12/13 09:47:18;;;;;;;22.25;7.10;;;;;;;-1.46;78.01;99498.50;5000123;28;20053;-53
2022/12/13 09:49:50;;;;;;;24.67;7.45;;;;;;;-1.44;78.49;99497.78;5003073;28;20054;-52
2022/12/13 09:52:22;;;;;;;24.23;8.80;;;;;;;-1.39;78.25;99492.84;4982617;28;20053;-56
2022/12/13 09:54:52;;;;;;;71.78;8.07;;;;;;;-1.38;77.84;99497.16;4993249;28;20080;-52
2022/12/13 09:57:23;;;;;;;23.35;8.23;;;;;;;-1.40;78.02;99492.78;4992904;28;20073;-55
2022/12/13 10:00:00;;;;;;;54.05;6.88;;;;;;;-1.41;78.08;99491.94;5003819;28;20569;-51
2022/12/13 10:02:30;;;;;;;27.73;5.22;;;;;;;-1.41;77.53;99494.47;4999191;28;20071;-50
2022/12/13 10:07:54;;;;;;;89.13;15.02;;;;;;;-1.02;77.29;99485.69;5056624;28;20727;-51
2022/12/13 10:10:21;;;;;;;72.55;12.40;;;;;;;-1.18;77.48;99490.22;5023336;28;20049;-53
2022/12/13 10:12:57;;;;;;;36.90;10.27;;;;;;;-1.17;77.91;99493.63;5020328;28;20136;-53
2022/12/13 10:15:24;;;;;;;20.00;6.80;;;;;;;-1.13;77.85;99494.59;5019946;28;20628;-52
2022/12/13 10:17:51;;;;;;;29.65;8.55;;;;;;;-1.06;77.87;99489.81;5019966;28;20056;-51
2022/12/13 10:20:24;;;;;;;25.17;7.35;;;;;;;-0.94;77.77;99491.06;5014716;28;20050;-56
2022/12/13 10:22:51;;;;;;;29.02;7.72;;;;;;;-0.72;78.04;99489.22;5021611;28;20648;-50
2022/12/13 10:25:55;;;;;;;29.35;8.60;;;;;;;-0.52;78.19;99488.25;5018246;28;20045;-54
2022/12/13 10:28:32;;;;;;;27.67;8.50;;;;;;;-0.37;77.79;99492.09;5019751;28;20128;-52
2022/12/13 10:31:00;;;;;;;25.20;8.45;;;;;;;-0.24;78.03;99487.41;5019553;28;20406;-54
2022/12/13 10:33:30;;;;;;;23.35;7.07;;;;;;;-0.21;77.07;99492.59;5019075;28;20046;-53
2022/12/13 10:36:05;;;;;;;22.58;7.85;;;;;;;-0.23;77.04;99500.19;5020068;28;20072;-54
2022/12/13 10:38:37;;;;;;;24.38;7.30;;;;;;;-0.24;77.51;99498.44;5019705;28;20571;-53
2022/12/13 10:41:25;;;;;;;24.35;8.20;;;;;;;-0.30;76.98;99482.97;5017801;28;20057;-53
2022/12/13 10:44:15;;;;;;;22.70;6.45;;;;;;;-0.32;76.79;99476.97;5017101;28;20136;-49
2022/12/13 10:46:48;;;;;;;26.98;6.80;;;;;;;-0.34;76.83;99474.38;5016484;28;20057;-52
2022/12/13 10:49:26;;;;;;;19.25;6.65;;;;;;;-0.32;77.34;99475.28;5012243;28;20505;-52
2022/12/13 10:51:53;;;;;;;;;;;;;;;-0.34;76.86;99469.28;5017019;28;20429;-49
2022/12/13 10:54:27;;;;;;;24.60;7.38;;;;;;;-0.30;77.08;99466.00;5018133;28;19921;-50
2022/12/13 10:57:04;;;;;;;22.00;5.93;;;;;;;-0.24;77.13;99465.34;5015936;28;20145;-54
2022/12/13 10:59:34;;;;;;;15.65;6.18;;;;;;;-0.22;77.09;99456.09;5017475;28;20878;-53
2022/12/13 11:02:21;;;;;;;17.63;6.93;;;;;;;-0.19;76.95;99456.19;5017304;28;20059;-51
2022/12/13 11:04:48;;;;;;;17.80;5.68;;;;;;;-0.22;76.79;99455.22;5017750;28;20128;-51
2022/12/13 11:07:32;;;;;;;20.90;6.25;;;;;;;-0.24;76.74;99457.72;5019803;28;20550;-52
2022/12/13 11:13:01;;;;;;;17.02;8.70;;;;;;;-0.26;76.73;99449.19;5062571;28;20419;-51
2022/12/13 11:15:29;;;;;;;20.80;7.30;;;;;;;-0.29;76.75;99443.97;5058633;28;20130;-53
2022/12/13 11:18:03;;;;;;;21.27;7.40;;;;;;;-0.29;76.95;99449.94;5059558;28;20516;-51
2022/12/13 11:20:34;;;;;;;22.98;8.18;;;;;;;-0.28;76.75;99441.50;5060272;28;20079;-53
2022/12/13 11:23:31;;;;;;;20.08;6.18;;;;;;;-0.29;76.59;99437.22;5065925;28;20080;-57
2022/12/13 11:26:04;;;;;;;19.20;8.80;;;;;;;-0.28;76.56;99420.25;5060415;28;20127;-54
2022/12/13 11:31:39;;;;;;;21.27;6.30;;;;;;;-0.31;76.57;99423.56;5045457;27;20393;-56
2022/12/13 11:39:49;;;;;;;19.75;5.93;;;;;;;-0.38;76.31;99416.56;5037428;28;20429;-55
2022/12/13 11:47:44;;;;;;;15.68;7.22;;;;;;;-0.46;76.32;99400.19;5054112;28;20396;-55
2022/12/13 11:50:16;;;;;;;24.77;8.65;;;;;;;-0.44;76.82;99398.56;5001407;28;20050;-49
2022/12/13 11:53:24;;;;;;;16.85;6.20;;;;;;;-0.47;76.58;99409.50;5000385;28;20158;-53
2022/12/13 11:56:16;;;;;;;19.75;6.35;;;;;;;-0.48;76.71;99401.84;5000241;28;20061;-51
2022/12/13 11:58:55;;;;;;;19.27;7.85;;;;;;;-0.48;77.25;99391.66;5002757;28;20446;-53
2022/12/13 12:07:00;;;;;;;19.75;6.70;;;;;;;-0.52;76.54;99389.00;5004752;28;20396;-50
2022/12/13 12:09:54;;;;;;;16.40;6.15;;;;;;;-0.52;76.46;99391.56;4980999;28;20129;-54
2022/12/13 12:12:38;;;;;;;18.05;5.80;;;;;;;-0.52;76.82;99386.47;4969873;28;20157;-53
2022/12/13 12:15:28;;;;;;;17.58;7.65;;;;;;;-0.52;76.78;99386.47;4964725;28;20079;-52
2022/12/13 12:17:56;;;;;;;18.75;5.53;;;;;;;-0.49;77.18;99389.91;4959641;28;20570;-55
2022/12/13 12:20:40;;;;;;;20.50;7.78;;;;;;;-0.50;77.15;99394.16;4962830;28;20508;-54
2022/12/13 12:26:06;;;;;;;20.20;7.97;;;;;;;-0.42;76.92;99379.09;5024514;28;20441;-51
2022/12/13 12:42:09;;;;;;;33.55;10.73;;;;;;;-0.24;76.96;99360.16;5047052;28;20414;-56
2022/12/13 12:53:05;;;;;;;22.67;8.07;;;;;;;-0.36;76.78;99351.31;5031451;27;20410;-51
2022/12/13 12:55:59;;;;;;;20.30;7.05;;;;;;;-0.38;76.88;99347.84;5020777;28;20069;-54
2022/12/13 12:58:32;;;;;;;19.20;8.38;;;;;;;-0.42;76.39;99346.03;5038749;28;20663;-52
2022/12/13 13:01:30;;;;;;;20.77;5.97;;;;;;;-0.45;76.88;99346.81;5036011;28;20042;-51
2022/12/13 13:04:13;;;;;;;17.15;6.88;;;;;;;-0.47;76.71;99347.59;5043889;28;20090;-53
2022/12/13 13:06:56;;;;;;;21.98;6.60;;;;;;;-0.48;77.03;99345.88;5038909;28;20089;-49
2022/12/13 13:09:29;;;;;;;23.30;7.47;;;;;;;-0.48;76.64;99348.41;5037969;28;20384;-57
2022/12/13 13:11:56;;;;;;;20.67;7.20;;;;;;;-0.49;76.76;99339.03;5021733;28;20072;-51